Alburnett, IA (52202)

11:18 PM CDT on July 28, 2016 (GMT -0500)
KIACENTR2 | | Change Station

Elev 930 ft 42.20 °N, 91.65 °W | Updated 2 minutes ago

Overcast
Overcast
66.7 °F
Feels Like 66.7 °F
N
1.9
Wind Variable Wind from NNW
Gusts 4.9 mph

Today
High -- | Low -- °F
--% Chance of Precip.
Yesterday
High -- | Low -- °F
Precip. -- in
Pressure 29.95 in
Visibility 10.0 miles
Clouds Overcast 1200 ft
Dew Point 65 °F
Humidity 96%
Rainfall Not available.
Snow Depth Not available.
5:56 AM 8:29 PM
Waning Crescent, 26% visible
SPECI KCID 290409Z 01009KT 10SM OVC012 20/19 A2995 RMK AO2 T02000194
Pressure 29.95 in
Visibility 10.0 miles
Clouds Overcast 1200 ft
Dew Point 65 °F
Humidity 96%
Rainfall Not available.
Snow Depth Not available.
5:56 AM 8:29 PM
Waning Crescent, 26% visible
SPECI KCID 290409Z 01009KT 10SM OVC012 20/19 A2995 RMK AO2 T02000194

10-Day Weather Forecast

Almanac

Astronomy

Jul. 28, 2016 Rise Set
Actual Time
Civil Twilight
Nautical Twilight
Astronomical Twilight
Moon
Length of Visible Light
Length of Day
Tomorrow will be .
, % of the Moon is Illuminated

Today's Extremes

State Highs State Lows

Community

WunderPhotos

Upload Photos

1,928,293 photos uploaded!

WunderBlog® & News

Nearby

Air Quality

  Air Quality AQ Index Pollutant
Not available.

Snow Depth

Station Depth Elevation

Earthquake Activity

City Distance Mag. Time & Date
Minimum magnitude displayed is 2.5.

Coastal Water Temperatures

Place Temperature

Stations

Nearby Weather Stations

Station Location Temp. Windchill Dew Point Humidity Wind Precip. Elev Updated Type
                   

Watches & Warnings

There are currently no watches in effect.